28 września 2022

Czas Kod Pogoda Temp. Widoczność Sufit Wiatr METAR/SPECI
21:30
V
21 °C 10 km+ 6.600 ft 100° 100° 8 kt METAR FMEP 281730Z AUTO 10008KT 9999 BKN066 21/15 Q1021
21:00
V
21 °C 10 km+ - 110° 110° 10 kt METAR FMEP 281700Z AUTO 11010KT CAVOK 21/15 Q1021
20:30
V
21 °C 10 km+ - 110° 110° 12 kt METAR FMEP 281630Z AUTO 11012KT CAVOK 21/15 Q1020
20:00
V
21 °C 10 km+ - 120° 120° 15 kt METAR FMEP 281600Z AUTO 12015KT CAVOK 21/15 Q1020
19:30
V
22 °C 10 km+ - 120° 120° 16 kt METAR FMEP 281530Z AUTO 12016KT 9999 FEW066 22/15 Q1020
19:00
V
21 °C 10 km+ - 120° 120° 18 kt METAR FMEP 281500Z AUTO 12018KT 9999 SCT066 21/15 Q1019 NOSIG
18:30
V
22 °C 10 km+ 6.800 ft 120° 120° 17 kt METAR FMEP 281430Z AUTO 12017KT 9999 BKN068 22/15 Q1019 NOSIG
18:00
V
22 °C 10 km+ 6.800 ft 120° 120° 16 kt METAR FMEP 281400Z AUTO 12016KT 9999 OVC068 22/15 Q1019 TEMPO 12020G30KT
17:30
V
22 °C 10 km+ 5.600 ft 120° 120° 17 kt METAR FMEP 281330Z AUTO 12017KT 9999 BKN056 OVC066 22/15 Q1019 TEMPO 12020G30KT
17:00
V
22 °C 10 km+ 5.600 ft 120° 120° 17 kt METAR FMEP 281300Z AUTO 12017KT 9999 BKN056 OVC068 22/16 Q1019 BECMG 12020G30KT
16:30
V
23 °C 10 km+ 7.000 ft 130° 130° 19 kt METAR FMEP 281230Z AUTO 13019KT 9999 FEW049 OVC070 23/16 Q1019 BECMG 12020G30KT
16:00
V
23 °C 10 km+ 6.800 ft 120° 120° 20 kt METAR FMEP 281200Z AUTO 12020KT 9999 FEW024 SCT058 OVC068 23/16 Q1019 BECMG 12020G30KT
15:30
V
23 °C 10 km+ 5.000 ft 120° 120° 19 kt METAR FMEP 281130Z AUTO 12019KT 9999 BKN050 OVC060 23/17 Q1019 BECMG 12020G30KT
15:00
V
24 °C 10 km+ 7.000 ft 130° 130° 21 kt METAR FMEP 281100Z AUTO 13021KT 9999 SCT058 OVC070 24/16 Q1019 BECMG 12020G30KT
14:30
V
24 °C 10 km+ 6.200 ft 130° 130° 21 kt METAR FMEP 281030Z AUTO 13021KT 9999 OVC062 24/17 Q1019 BECMG 12020G30KT
14:00
V
24 °C 10 km+ 6.200 ft 130° 130° 20 kt METAR FMEP 281000Z AUTO 13020KT 9999 OVC062 24/16 Q1019 BECMG 12020G30KT
13:30
V
24 °C 10 km+ 5.800 ft 120° 120° 18 kt METAR FMEP 280930Z AUTO 12018KT 9999 OVC058 24/15 Q1020 BECMG 12020G30KT
13:00
V
24 °C 10 km+ 6.000 ft 110° 110° 21 kt METAR FMEP 280900Z AUTO 11021KT 9999 OVC060 24/14 Q1020 BECMG 12020G30KT
12:30
V
24 °C 10 km+ 6.200 ft 120° 120° 22 kt METAR FMEP 280830Z AUTO 12022KT 9999 BKN062 24/16 Q1020 BECMG 12020G30KT
12:00
V
26 °C 10 km+ - 120° 120° 22 kt METAR FMEP 280800Z AUTO 12022KT 9999 FEW062 26/15 Q1020 BECMG 11020G30KT
11:30
V
25 °C 10 km+ - 120° 120° 24 kt METAR FMEP 280730Z AUTO 12024KT 9999 FEW060 25/16 Q1021 BECMG 11020G30KT
11:00
V
25 °C 10 km+ - 130° 130° 21 kt METAR FMEP 280700Z AUTO 13021KT CAVOK 25/16 Q1021 BECMG 11020G30KT
10:30
V
25 °C 10 km+ - 130° 130° 21 kt METAR FMEP 280630Z AUTO 13021KT CAVOK 25/15 Q1021 BECMG 11020G30KT
10:00
V
25 °C 10 km+ - 130° 130° 20 kt METAR FMEP 280600Z AUTO 13020KT 9999 SCT062 25/16 Q1021 BECMG 11020G30KT
09:30
V
25 °C 10 km+ 6.200 ft 120° 120° 11 kt METAR FMEP 280530Z AUTO 12011KT 090V150 9999 OVC062 25/14 Q1021 BECMG 11020G30KT
09:00
V
24 °C 10 km+ 6.200 ft 100° 100° 9 kt METAR FMEP 280500Z AUTO 10009KT 9999 OVC062 24/12 Q1021 BECMG 11020G30KT
08:30
V
23 °C 10 km+ 6.000 ft 120° 120° 12 kt METAR FMEP 280430Z AUTO 12012KT 9999 OVC060 23/16 Q1021 BECMG 11020G30KT
08:00
V
23 °C 10 km+ 6.200 ft 040° 040° 6 kt METAR FMEP 280400Z AUTO 04006KT 010V070 9999 BKN062 23/11 Q1021 NOSIG
07:30
V
22 °C 10 km+ 6.200 ft 040° 040° 8 kt METAR FMEP 280330Z AUTO 04008KT 9999 BKN062 22/10 Q1021 NOSIG
07:00
V
22 °C 10 km+ 5.800 ft 090° 090° 5 kt METAR FMEP 280300Z AUTO 09005KT 060V120 9999 OVC058 22/11 Q1021 NOSIG
06:30
V
21 °C 10 km+ 5.800 ft 040° 040° 8 kt METAR FMEP 280230Z AUTO 04008KT 010V070 9999 OVC058 21/10 Q1020 NOSIG
06:00
V
20 °C 10 km+ 5.600 ft 040° 040° 9 kt METAR FMEP 280200Z AUTO 04009KT 010V070 9999 OVC056 20/10 Q1020
05:30
V
20 °C 10 km+ - 040° 040° 8 kt METAR FMEP 280130Z AUTO 04008KT 9999 SCT056 20/10 Q1020
05:00
V
20 °C 10 km+ - 040° 040° 8 kt METAR FMEP 280100Z AUTO 04008KT CAVOK 20/10 Q1020
04:30
V
20 °C 10 km+ - 040° 040° 8 kt METAR FMEP 280030Z AUTO 04008KT 010V070 CAVOK 20/11 Q1019
04:00
V
19 °C 10 km+ - 070° 070° 4 kt METAR FMEP 280000Z AUTO 07004KT 9999 SCT056 19/11 Q1020
03:30
V
20 °C 10 km+ 5.400 ft 050° 050° 5 kt METAR FMEP 272330Z AUTO 05005KT 020V120 9999 OVC054 20/11 Q1020
03:00
V
20 °C 10 km+ 5.400 ft 040° 040° 7 kt METAR FMEP 272300Z AUTO 04007KT 9999 OVC054 20/11 Q1020
02:30
V
19 °C 10 km+ 5.400 ft Var Var 2 kt METAR FMEP 272230Z AUTO VRB02KT 9999 OVC054 19/11 Q1020
02:00
V
19 °C 10 km+ 5.600 ft 020° 020° 5 kt METAR FMEP 272200Z AUTO 02005KT 9999 BKN056 19/11 Q1020
01:30
V
19 °C 10 km+ - Var Var 3 kt METAR FMEP 272130Z AUTO VRB03KT 9999 SCT056 19/11 Q1020
01:00
V
20 °C 10 km+ - 050° 050° 4 kt METAR FMEP 272100Z AUTO 05004KT 9999 FEW058 20/11 Q1021
00:30
V
19 °C 10 km+ - 060° 060° 6 kt METAR FMEP 272030Z AUTO 06006KT 030V100 CAVOK 19/12 Q1021
00:00
V
20 °C 10 km+ - Var Var 3 kt METAR FMEP 272000Z AUTO VRB03KT CAVOK 20/12 Q1021

27 września 2022

Czas Kod Pogoda Temp. Widoczność Sufit Wiatr METAR/SPECI
23:30
V
21 °C 10 km+ - 080° 080° 7 kt METAR FMEP 271930Z AUTO 08007KT 9999 FEW058 21/13 Q1021
23:00
V
21 °C 10 km+ - 110° 110° 11 kt METAR FMEP 271900Z AUTO 11011KT 9999 FEW060 21/16 Q1021
22:30
V
22 °C 10 km+ 5.800 ft 110° 110° 12 kt METAR FMEP 271830Z AUTO 11012KT 9999 BKN058 22/16 Q1022
22:00
V
22 °C 10 km+ 5.800 ft 090° 090° 10 kt METAR FMEP 271800Z AUTO 09010KT 050V110 9999 BKN058 22/15 Q1022
21:30
V
22 °C 10 km+ 5.800 ft 100° 100° 10 kt METAR FMEP 271730Z AUTO 10010KT 060V120 9999 BKN058 22/16 Q1022
21:00
V
22 °C 10 km+ 5.800 ft 100° 100° 10 kt METAR FMEP 271700Z AUTO 10010KT 060V120 9999 BKN058 22/15 Q1022
20:30
V
22 °C 10 km+ - 120° 120° 15 kt METAR FMEP 271630Z AUTO 12015KT 9999 SCT058 22/16 Q1021
20:00
V
22 °C 10 km+ 5.800 ft 110° 110° 9 kt METAR FMEP 271600Z AUTO 11009KT 9999 OVC058 22/15 Q1021 NOSIG
19:30
V
23 °C 10 km+ 6.000 ft 120° 120° 10 kt METAR FMEP 271530Z AUTO 12010KT 9999 FEW043 OVC060 23/16 Q1021 NOSIG
19:00
V
23 °C 10 km+ 6.000 ft 110° 110° 11 kt METAR FMEP 271500Z AUTO 11011KT 9999 FEW047 OVC060 23/16 Q1021 NOSIG
18:30
V
23 °C 10 km+ 6.000 ft 120° 120° 12 kt METAR FMEP 271430Z AUTO 12012KT 9999 FEW047 BKN060 23/17 Q1020 NOSIG
18:00
V
23 °C 10 km+ 5.800 ft 120° 120° 11 kt METAR FMEP 271400Z AUTO 12011KT 9999 FEW046 OVC058 23/16 Q1020 NOSIG
17:30
V
24 °C 10 km+ 5.200 ft Var Var 3 kt METAR FMEP 271330Z AUTO VRB03KT 9999 OVC052 24/15 Q1020 NOSIG
17:00
V
24 °C 10 km+ 5.200 ft 130° 130° 6 kt METAR FMEP 271300Z AUTO 13006KT 100V170 9999 OVC052 24/15 Q1020 NOSIG
16:30
V
24 °C 10 km+ 5.400 ft 160° 160° 4 kt METAR FMEP 271230Z AUTO 16004KT 110V220 9999 OVC054 24/16 Q1020 NOSIG
16:00
V
24 °C 10 km+ 5.200 ft Var Var 3 kt METAR FMEP 271200Z AUTO VRB03KT 9999 OVC052 24/15 Q1020 NOSIG
15:30
V
24 °C 10 km+ 5.200 ft 220° 220° 4 kt METAR FMEP 271130Z AUTO 22004KT 190V250 9999 OVC052 24/15 Q1020 TEMPO 11012KT
15:00
V
24 °C 10 km+ 5.000 ft 230° 230° 4 kt METAR FMEP 271100Z AUTO 23004KT 190V260 9999 OVC050 24/15 Q1020 TEMPO 11012KT
14:30
V
25 °C 10 km+ 5.000 ft 210° 210° 4 kt METAR FMEP 271030Z AUTO 21004KT 160V270 9999 OVC050 25/15 Q1020 NOSIG
14:00
V
25 °C 10 km+ 5.000 ft 200° 200° 5 kt METAR FMEP 271000Z AUTO 20005KT 170V240 9999 OVC050 25/15 Q1021 NOSIG
13:30
V
25 °C 10 km+ 5.200 ft 200° 200° 5 kt METAR FMEP 270930Z AUTO 20005KT 170V240 9999 OVC052 25/15 Q1021 NOSIG
13:00
V
25 °C 10 km+ 5.400 ft Var Var 4 kt METAR FMEP 270900Z AUTO VRB04KT 9999 OVC054 25/15 Q1021 NOSIG
12:30
V
26 °C 10 km+ 5.600 ft 230° 230° 6 kt METAR FMEP 270830Z AUTO 23006KT 190V280 9999 BKN056 26/16 Q1022 NOSIG
12:00
V
25 °C 10 km+ 5.400 ft 240° 240° 6 kt METAR FMEP 270800Z AUTO 24006KT 9999 OVC054 25/15 Q1022 NOSIG
11:30
V
25 °C 10 km+ 5.800 ft 250° 250° 8 kt METAR FMEP 270730Z AUTO 25008KT 210V270 9999 BKN058 25/15 Q1023 NOSIG
11:00
V
25 °C 10 km+ 5.800 ft 210° 210° 7 kt METAR FMEP 270700Z AUTO 21007KT 190V270 9999 BKN058 25/15 Q1023 NOSIG
10:30
V
25 °C 10 km+ - 190° 190° 6 kt METAR FMEP 270630Z AUTO 19006KT 160V230 CAVOK 25/15 Q1023 NOSIG
10:00
V
25 °C 10 km+ - 170° 170° 6 kt METAR FMEP 270600Z AUTO 17006KT 140V200 9999 FEW056 25/15 Q1023 NOSIG
09:30
V
25 °C 10 km+ - 190° 190° 7 kt METAR FMEP 270530Z AUTO 19007KT CAVOK 25/15 Q1023 NOSIG
09:00
V
24 °C 10 km+ - 190° 190° 4 kt METAR FMEP 270500Z AUTO 19004KT 160V250 CAVOK 24/14 Q1023 NOSIG
08:30
V
25 °C 10 km+ - 220° 220° 3 kt METAR FMEP 270430Z AUTO 22003KT 200V330 CAVOK 25/13 Q1023 NOSIG
08:00
V
24 °C 10 km+ - 040° 040° 5 kt METAR FMEP 270400Z AUTO 04005KT 360V070 CAVOK 24/12 Q1023 NOSIG
07:30
V
23 °C 10 km+ - Var 000° 0 kt METAR FMEP 270330Z AUTO 00000KT CAVOK 23/13 Q1023 NOSIG
07:00
V
21 °C 10 km+ - Var Var 3 kt METAR FMEP 270300Z AUTO VRB03KT CAVOK 21/12 Q1023 NOSIG
06:30
V
20 °C 10 km+ - 020° 020° 6 kt METAR FMEP 270230Z AUTO 02006KT CAVOK 20/11 Q1022 NOSIG
06:00
V
20 °C 10 km+ - 030° 030° 9 kt METAR FMEP 270200Z AUTO 03009KT CAVOK 20/11 Q1022
05:30
V
20 °C 10 km+ - 020° 020° 8 kt METAR FMEP 270130Z AUTO 02008KT CAVOK 20/12 Q1022
05:00
V
19 °C 10 km+ - 020° 020° 6 kt METAR FMEP 270100Z AUTO 02006KT 9999 SCT041 19/12 Q1022
04:30
V
19 °C 10 km+ 4.100 ft 020° 020° 6 kt METAR FMEP 270030Z AUTO 02006KT 9999 BKN041 19/12 Q1022
04:00
V
19 °C 10 km+ 3.400 ft Var Var 2 kt METAR FMEP 270000Z AUTO VRB02KT 9999 BKN034 BKN040 19/13 Q1022
03:30
V
19 °C 10 km+ - 050° 050° 5 kt METAR FMEP 262330Z AUTO 05005KT 9999 FEW032 19/13 Q1022
03:00
V
20 °C 10 km+ - 030° 030° 6 kt METAR FMEP 262300Z AUTO 03006KT 9999 FEW035 20/14 Q1022
02:30
V
19 °C 10 km+ 3.100 ft 010° 010° 5 kt METAR FMEP 262230Z AUTO 01005KT 9999 BKN031 BKN040 19/14 Q1022
02:00
V
20 °C 10 km+ - 040° 040° 4 kt METAR FMEP 262200Z AUTO 04004KT 9999 FEW031 20/14 Q1022
01:30
V
20 °C 10 km+ - 120° 120° 6 kt METAR FMEP 262130Z AUTO 12006KT CAVOK 20/15 Q1022
01:00
V
20 °C 10 km+ - 040° 040° 7 kt METAR FMEP 262100Z AUTO 04007KT CAVOK 20/15 Q1022
00:30
V
20 °C 10 km+ - 310° 310° 8 kt METAR FMEP 262030Z AUTO 31008KT 270V340 CAVOK 20/15 Q1022
00:00
V
20 °C 10 km+ - 090° 090° 6 kt METAR FMEP 262000Z AUTO 09006KT 050V110 CAVOK 20/13 Q1023

26 września 2022

Czas Kod Pogoda Temp. Widoczność Sufit Wiatr METAR/SPECI
23:30
V
21 °C 10 km+ - 040° 040° 5 kt METAR FMEP 261930Z AUTO 04005KT 350V150 CAVOK 21/14 Q1022
23:00
V
21 °C 10 km+ - 090° 090° 5 kt METAR FMEP 261900Z AUTO 09005KT 060V130 CAVOK 21/14 Q1023
22:30
V
22 °C 10 km+ - 120° 120° 8 kt METAR FMEP 261830Z AUTO 12008KT 090V150 CAVOK 22/14 Q1023
22:00
V
21 °C 10 km+ - 100° 100° 10 kt METAR FMEP 261800Z AUTO 10010KT CAVOK 21/14 Q1023
21:30
V
22 °C 10 km+ - 110° 110° 8 kt METAR FMEP 261730Z AUTO 11008KT 080V140 9999 FEW039 22/14 Q1023
21:00
V
23 °C 10 km+ 5.200 ft 110° 110° 8 kt METAR FMEP 261700Z AUTO 11008KT 9999 FEW030 OVC052 23/13 Q1023
20:30
V
23 °C 10 km+ - 110° 110° 7 kt METAR FMEP 261630Z AUTO 11007KT 060V140 9999 FEW052 23/13 Q1022
20:00
V
23 °C 10 km+ - Var 000° 0 kt METAR FMEP 261600Z AUTO 00000KT 9999 FEW054 23/12 Q1022
19:30
V
23 °C 10 km+ 5.400 ft 100° 100° 7 kt METAR FMEP 261530Z AUTO 10007KT 9999 OVC054 23/16 Q1022
19:00
V
23 °C 10 km+ - 100° 100° 4 kt METAR FMEP 261500Z AUTO 10004KT 9999 SCT056 23/16 Q1021 BECMG 13018KT
Starsze dane

My i osoby trzecie śledzimy twoje zachowanie w internecie na naszej stronie za pomocą plików cookie. Jeśli kontynuujesz, zakładamy, że zgadzasz się z naszą polityką plików cookie. Dowiedz się więcej